map of EMN home
EMN - Airport
Location
City:  Néma, Mauritania
Name:Néma Airport
ICAO:GQNI
IATA:EMN

Details
Type:Airport (Aerodrome, Airfield)
Latitude:16°37'19"N (16.622000)
Longitude:7°19'00"W (-7.316566)
Datum:WGS 1984
Elevation:758 ft (231 m)
Variation:3.10°W (WMM2015 magnetic declination)
0.10° annual change
Runways:1
Longest:6890 × 100 ft (2100 × 30.5 m), paved

Time
Time Zone:UTC+0
Local Time:

Weather
METAR:GQNI 181200Z 08012KT 8000 NSC 30/M01 Q1017

Related Locations
Nearby:
Farthest:FTA: 12181 mi / 19603 km
Futuna Island [Futuna Airport], TAE, VU

Find:

   beyond  
but within

Other Information
Maps:
NOTAMs:
Links:
Sources:

  
  • flag of Mauritania
  

Sectional Chart

Flight Planning
at skyvector.com

Satellite Image

Google Maps Satellite view

 

Copyright © 2004-2018 Karl L. Swartz. All rights reserved.
The Great Circle Mapper name and logo are trademarks of the Great Circle Mapper.
All other trademarks mentioned herein belong to their respective owners.
Please see credits for attibutions and further copyright information.

  Follow gcmap on Facebook Follow gcmap on Twitter Follow gcmap on Google+ GCmap on LinkedIn

hCard Microformat

Geo Microformat